DAUU/OGX METAR and TAF weather

Enter ICAO airport designator
Station Type Date Time Source
DAUU METAR 2021/05/11 16:00 UTC NOAA

DAUU 111600Z 03014KT 3000 HZ NSC 33/03 Q1011


Station Type Date Time Source
DAUU Decoded METAR 2021/05/11 16:00 UTC NOAA

Ouargla, Algeria (DAUU) 31-55N 005-24E 141M
May 11, 2021 - 12:00 PM EDT / 2021.05.11 1600 UTC
Wind: from the NNE (030 degrees) at 16 MPH (14 KT):0
Visibility: 1 mile(s):0
Weather: haze
Temperature: 91 F (33 C)
Dew Point: 37 F (3 C)
Relative Humidity: 15%
Pressure (altimeter): 29.85 in. Hg (1011 hPa)
ob: DAUU 111600Z 03014KT 3000 HZ NSC 33/03 Q1011
cycle: 16

Station Type Date Time Source
DAUU TAF 2017/11/09 18:03 UTC NOAA

TAF DAUU 091700Z 0918/1009 34012KT 9999 FEW040 SCT100 PROB40
TEMPO 0918/0924 34015G25KT 5000 -TSRA FEW036CB

Example: see airport list